Time;durP1;ratioP1;P1;durP2;ratioP2;P2;SDS_P1;SDS_P2;PMS_P1;PMS_P2;Temp;Humidity;BMP_temperature;BMP_pressure;BME280_temperature;BME280_humidity;BME280_pressure;Samples;Min_cycle;Max_cycle;Signal;HPM_P1;HPM_P2
2023/08/09 00:00:59;;;;;;;4.22;1.90;;;;;;;-142.57;42.95;115900.28;5037905;28;20393;-86
2023/08/09 00:03:25;;;;;;;2.83;1.30;;;;;;;-142.57;42.87;115900.28;5053068;28;20466;-89
2023/08/09 00:05:51;;;;;;;4.85;1.83;;;;;;;-142.57;42.70;115900.28;5037749;28;20025;-85
2023/08/09 00:08:19;;;;;;;4.55;1.83;;;;;;;-142.57;43.33;115900.28;5036658;28;20474;-84
2023/08/09 00:10:45;;;;;;;6.18;1.60;;;;;;;-142.57;43.42;115900.28;5036841;28;20072;-89
2023/08/09 00:13:12;;;;;;;3.88;1.55;;;;;;;-142.57;43.06;115900.28;5037176;28;20455;-86
2023/08/09 00:15:38;;;;;;;2.83;1.40;;;;;;;-142.57;43.02;115900.28;5034959;28;20038;-88
2023/08/09 00:18:04;;;;;;;4.82;2.05;;;;;;;-142.57;43.44;115900.28;5036634;28;20117;-87
2023/08/09 00:20:30;;;;;;;4.32;1.50;;;;;;;-142.57;43.67;115900.28;5036591;28;20120;-87
2023/08/09 00:22:56;;;;;;;4.85;1.30;;;;;;;-142.57;43.26;115900.28;5036957;28;20479;-86
2023/08/09 00:25:21;;;;;;;8.60;1.67;;;;;;;-142.57;43.26;115900.28;5037094;28;20055;-89
2023/08/09 00:27:50;;;;;;;2.95;1.73;;;;;;;-142.57;42.71;115900.28;5038130;28;20025;-88
2023/08/09 00:30:15;;;;;;;3.45;1.67;;;;;;;-142.57;42.54;115900.28;5036205;28;20038;-85
2023/08/09 00:32:42;;;;;;;4.50;2.03;;;;;;;-142.57;42.54;115900.28;5037483;28;20044;-88
2023/08/09 00:35:09;;;;;;;8.25;1.67;;;;;;;-142.57;42.48;115900.28;5038884;28;20101;-83
2023/08/09 00:37:36;;;;;;;4.90;1.52;;;;;;;-142.57;42.68;115900.28;5034440;28;20053;-88
2023/08/09 00:40:07;;;;;;;5.47;1.58;;;;;;;-142.57;43.51;115900.28;5039146;28;20036;-86
2023/08/09 00:42:32;;;;;;;6.43;1.63;;;;;;;-142.57;43.64;115900.28;5039192;28;20033;-87
2023/08/09 00:45:00;;;;;;;7.32;1.67;;;;;;;-142.57;43.76;115900.28;5039523;28;20068;-86
2023/08/09 00:47:26;;;;;;;4.90;1.73;;;;;;;-142.57;43.86;115900.28;5037307;28;20498;-86
2023/08/09 00:49:55;;;;;;;3.67;1.65;;;;;;;-142.57;43.94;115900.28;5040197;28;20567;-85
2023/08/09 00:52:21;;;;;;;3.25;1.60;;;;;;;-142.57;43.73;115900.28;5038317;28;20034;-87
2023/08/09 00:55:08;;;;;;;4.65;1.80;;;;;;;-142.57;43.51;115900.28;5039769;28;20066;-85
2023/08/09 00:57:34;;;;;;;2.47;1.58;;;;;;;-142.57;43.33;115900.28;5038548;28;20056;-88
2023/08/09 00:59:59;;;;;;;4.80;1.65;;;;;;;-142.57;44.30;115900.28;5039280;28;20045;-87
2023/08/09 01:02:25;;;;;;;5.30;1.77;;;;;;;-142.57;44.79;115900.28;5035572;28;20080;-87
2023/08/09 01:05:09;;;;;;;6.10;2.00;;;;;;;-142.57;45.79;115900.28;5036548;28;20030;-86
2023/08/09 01:08:01;;;;;;;14.90;2.38;;;;;;;-142.57;46.00;115900.28;5039462;28;20065;-89
2023/08/09 01:10:34;;;;;;;6.53;2.08;;;;;;;-142.57;46.22;115900.28;5036964;28;20033;-89
2023/08/09 01:13:05;;;;;;;4.78;1.95;;;;;;;-142.57;46.53;115900.28;5058061;28;20097;-89
2023/08/09 01:19:24;;;;;;;5.80;1.85;;;;;;;-142.57;47.49;115900.28;5057154;28;20056;-88
2023/08/09 01:21:50;;;;;;;5.47;1.90;;;;;;;-142.57;47.43;115900.28;5056937;28;20072;-86
2023/08/09 01:24:56;;;;;;;7.50;2.35;;;;;;;-142.57;47.24;115900.28;5056069;28;20025;-84
2023/08/09 01:27:21;;;;;;;6.72;2.15;;;;;;;-142.57;48.02;115900.28;5053495;28;20044;-84
2023/08/09 01:29:47;;;;;;;5.88;1.80;;;;;;;-142.57;48.20;115900.28;5054735;28;20052;-84
2023/08/09 01:32:13;;;;;;;5.10;1.98;;;;;;;-142.57;47.72;115900.28;5052554;28;20015;-83
2023/08/09 01:34:40;;;;;;;6.78;1.67;;;;;;;-142.57;48.23;115900.28;5051862;28;20063;-83
2023/08/09 01:37:18;;;;;;;4.80;1.80;;;;;;;-142.57;48.54;115900.28;5052652;28;20101;-83
2023/08/09 01:39:46;;;;;;;6.70;2.13;;;;;;;-142.57;49.29;115900.28;5050848;28;20068;-83
2023/08/09 01:42:14;;;;;;;4.35;1.90;;;;;;;-142.57;49.63;115900.28;5052517;28;20089;-83
2023/08/09 01:44:40;;;;;;;7.00;2.05;;;;;;;-142.57;49.30;115900.28;5053547;28;20064;-84
2023/08/09 01:47:07;;;;;;;5.47;1.80;;;;;;;-142.57;49.75;115900.28;5069607;28;20030;-85
2023/08/09 01:49:33;;;;;;;7.75;2.22;;;;;;;-142.57;50.33;115900.28;5052596;28;20071;-83
2023/08/09 01:51:58;;;;;;;6.85;1.83;;;;;;;-142.57;50.33;115900.28;5053190;28;20093;-83
2023/08/09 01:54:27;;;;;;;4.10;1.58;;;;;;;-142.57;50.45;115900.28;5054067;28;20026;-86
2023/08/09 01:56:53;;;;;;;9.60;2.00;;;;;;;-142.57;50.43;115900.28;5053892;28;20040;-85
2023/08/09 01:59:18;;;;;;;8.07;2.45;;;;;;;-142.57;50.18;115900.28;5054091;28;20045;-84
2023/08/09 02:01:44;;;;;;;5.28;1.92;;;;;;;-142.57;49.76;115900.28;5054646;28;20052;-85
2023/08/09 02:04:10;;;;;;;7.63;1.88;;;;;;;-142.57;49.61;115900.28;5055462;28;20041;-87
2023/08/09 02:06:38;;;;;;;8.68;2.47;;;;;;;-142.57;49.63;115900.28;5054833;28;20052;-85
2023/08/09 02:09:06;;;;;;;5.45;2.10;;;;;;;-142.57;50.08;115900.28;5048607;28;20064;-88
2023/08/09 02:11:32;;;;;;;9.30;2.05;;;;;;;-142.57;50.37;115900.28;5043427;28;20106;-88
2023/08/09 02:13:58;;;;;;;13.35;2.20;;;;;;;-142.57;50.05;115900.28;5069554;28;20022;-85
2023/08/09 02:16:23;;;;;;;5.18;1.88;;;;;;;-142.57;49.28;115900.28;5053565;28;20089;-85
2023/08/09 02:18:49;;;;;;;7.75;2.25;;;;;;;-142.57;49.67;115900.28;5055021;28;20060;-86
2023/08/09 02:21:14;;;;;;;6.55;1.92;;;;;;;-142.57;50.45;115900.28;5049681;28;20033;-86
2023/08/09 02:23:40;;;;;;;9.18;2.30;;;;;;;-142.57;50.37;115900.28;5049240;28;20036;-83
2023/08/09 02:26:07;;;;;;;6.15;2.10;;;;;;;-142.57;50.35;115900.28;5049255;28;20121;-85
2023/08/09 02:28:33;;;;;;;7.55;2.03;;;;;;;-142.57;49.93;115900.28;5051006;28;20038;-84
2023/08/09 02:31:01;;;;;;;6.15;1.58;;;;;;;-142.57;49.99;115900.28;5071823;28;20056;-86
2023/08/09 02:33:27;;;;;;;5.15;1.45;;;;;;;-142.57;50.76;115900.28;5059458;28;20041;-85
2023/08/09 02:36:00;;;;;;;4.20;1.58;;;;;;;-142.57;51.02;115900.28;5058039;28;20033;-86
2023/08/09 02:38:27;;;;;;;6.13;1.77;;;;;;;-142.57;50.63;115900.28;5056399;28;20076;-86
2023/08/09 02:40:53;;;;;;;5.07;1.85;;;;;;;-142.57;51.55;115900.28;5056547;28;20048;-84
2023/08/09 02:43:20;;;;;;;3.63;1.60;;;;;;;-142.57;52.35;115900.28;5054902;28;20042;-87
2023/08/09 02:45:46;;;;;;;5.00;1.70;;;;;;;-142.57;52.64;115900.28;5055458;28;20040;-87
2023/08/09 02:48:12;;;;;;;3.55;1.65;;;;;;;-142.57;52.18;115900.28;5050763;28;20044;-86
2023/08/09 02:50:39;;;;;;;4.28;1.40;;;;;;;-142.57;52.30;115900.28;5047366;28;20036;-83
2023/08/09 02:53:05;;;;;;;3.90;1.80;;;;;;;-142.57;52.25;115900.28;5042580;28;20033;-86
2023/08/09 02:55:31;;;;;;;5.07;1.65;;;;;;;-142.57;52.73;115900.28;5055474;28;20045;-85
2023/08/09 02:57:58;;;;;;;6.43;1.98;;;;;;;-142.57;52.70;115900.28;5056065;28;20033;-87
2023/08/09 03:00:23;;;;;;;7.90;1.80;;;;;;;-142.57;52.08;115900.28;5056268;28;20025;-87
2023/08/09 03:02:49;;;;;;;3.08;1.33;;;;;;;-142.57;52.66;115900.28;5059009;28;20024;-85
2023/08/09 03:05:16;;;;;;;4.72;1.52;;;;;;;-142.57;52.69;115900.28;5053152;28;20530;-85
2023/08/09 03:07:42;;;;;;;3.45;1.60;;;;;;;-142.57;52.69;115900.28;5050270;28;20049;-86
2023/08/09 03:10:08;;;;;;;6.93;2.08;;;;;;;-142.57;52.92;115900.28;5049154;28;20046;-86
2023/08/09 03:12:34;;;;;;;8.75;1.60;;;;;;;-142.57;53.05;115900.28;5032014;28;20030;-87
2023/08/09 03:15:04;;;;;;;2.65;1.55;;;;;;;-142.57;53.09;115900.28;5035924;28;20026;-86
2023/08/09 03:17:30;;;;;;;5.80;1.60;;;;;;;-142.57;53.12;115900.28;5035307;28;20064;-84
2023/08/09 03:19:56;;;;;;;2.80;1.45;;;;;;;-142.57;52.79;115900.28;5034819;28;20536;-86
2023/08/09 03:22:24;;;;;;;8.98;2.28;;;;;;;-142.57;52.55;115900.28;5035344;28;20037;-86
2023/08/09 03:24:50;;;;;;;2.90;1.20;;;;;;;-142.57;52.05;115900.28;5034765;28;20042;-86
2023/08/09 03:27:17;;;;;;;2.90;1.40;;;;;;;-142.57;51.59;115900.28;5035878;28;20073;-85
2023/08/09 03:29:43;;;;;;;3.20;1.50;;;;;;;-142.57;51.99;115900.28;5035515;28;20095;-87
2023/08/09 03:32:09;;;;;;;5.00;1.70;;;;;;;-142.57;51.83;115900.28;5034682;28;20041;-87
2023/08/09 03:34:35;;;;;;;9.10;1.65;;;;;;;-142.57;52.18;115900.28;5034529;28;20039;-84
2023/08/09 03:37:04;;;;;;;3.25;1.40;;;;;;;-142.57;52.22;115900.28;5035133;28;20037;-87
2023/08/09 03:39:31;;;;;;;7.18;1.90;;;;;;;-142.57;52.71;115900.28;5018272;28;20447;-86
2023/08/09 03:41:57;;;;;;;4.88;1.70;;;;;;;-142.57;53.11;115900.28;5017808;28;20128;-87
2023/08/09 03:44:22;;;;;;;9.85;1.58;;;;;;;-142.57;53.61;115900.28;5034197;28;20064;-86
2023/08/09 03:46:48;;;;;;;3.80;1.30;;;;;;;-142.57;54.92;115900.28;5035957;28;20384;-87
2023/08/09 03:49:14;;;;;;;13.10;1.73;;;;;;;-142.57;55.62;115900.28;5034619;28;20038;-86
2023/08/09 03:51:40;;;;;;;2.58;1.58;;;;;;;-142.57;56.63;115900.28;5034160;28;20463;-86
2023/08/09 03:54:06;;;;;;;7.25;2.03;;;;;;;-142.57;56.00;115900.28;5034300;28;20033;-87
2023/08/09 03:56:32;;;;;;;5.68;1.60;;;;;;;-142.57;55.99;115900.28;5034807;28;20239;-88
2023/08/09 03:58:57;;;;;;;4.53;1.58;;;;;;;-142.57;55.41;115900.28;5035260;28;20048;-88
2023/08/09 04:01:23;;;;;;;3.15;1.40;;;;;;;-142.57;55.36;115900.28;5035507;28;20030;-86
2023/08/09 04:03:48;;;;;;;4.93;1.60;;;;;;;-142.57;55.88;115900.28;5034330;28;20022;-88
2023/08/09 04:06:14;;;;;;;3.53;1.48;;;;;;;-142.57;57.15;115900.28;5035280;28;20034;-87
2023/08/09 04:08:40;;;;;;;4.93;1.63;;;;;;;-142.57;57.94;115900.28;5035315;28;20064;-86
2023/08/09 04:11:05;;;;;;;8.40;1.65;;;;;;;-142.57;57.71;115900.28;5035680;28;20033;-87
2023/08/09 04:13:31;;;;;;;6.88;1.65;;;;;;;-142.57;58.47;115900.28;5034000;28;20147;-87
2023/08/09 04:18:38;;;;;;;5.20;1.90;;;;;;;-142.57;58.44;115900.28;5054723;23;20493;-87
2023/08/09 04:21:07;;;;;;;5.28;1.63;;;;;;;-142.57;58.59;115900.28;5055985;28;20036;-89
2023/08/09 04:23:33;;;;;;;7.03;1.83;;;;;;;-142.57;58.12;115900.28;5055649;28;20448;-87
2023/08/09 04:26:00;;;;;;;6.00;2.17;;;;;;;-142.57;58.55;115900.28;5055390;28;20029;-88
2023/08/09 04:28:29;;;;;;;8.93;2.20;;;;;;;-142.57;58.26;115900.28;5055390;28;20059;-88
2023/08/09 04:30:55;;;;;;;5.55;1.90;;;;;;;-142.57;58.41;115900.28;5055173;28;20029;-88
2023/08/09 04:33:22;;;;;;;3.47;1.60;;;;;;;-142.57;58.08;115900.28;5054564;28;20078;-86
2023/08/09 04:35:48;;;;;;;5.38;2.00;;;;;;;-142.57;57.88;115900.28;5055270;28;20068;-87
2023/08/09 04:38:14;;;;;;;9.75;2.30;;;;;;;-142.57;58.62;115900.28;5036977;28;20116;-88
2023/08/09 04:40:39;;;;;;;9.38;2.20;;;;;;;-142.57;58.07;115900.28;5055276;28;20087;-89
2023/08/09 04:43:05;;;;;;;9.98;2.08;;;;;;;-142.57;57.85;115900.28;5054953;28;20061;-91
2023/08/09 04:45:30;;;;;;;5.43;2.00;;;;;;;-142.57;57.38;115900.28;5055094;28;20047;-88
2023/08/09 04:48:01;;;;;;;4.97;2.05;;;;;;;-142.57;56.86;115900.28;5053109;28;20131;-88
2023/08/09 04:50:29;;;;;;;9.10;2.20;;;;;;;-142.57;56.27;115900.28;5053890;28;20071;-88
2023/08/09 04:52:56;;;;;;;5.15;1.70;;;;;;;-142.57;55.14;115900.28;5055863;28;20040;-85
2023/08/09 04:55:21;;;;;;;6.07;2.03;;;;;;;-142.57;54.50;115900.28;5056144;28;20099;-87
2023/08/09 04:57:47;;;;;;;6.13;1.50;;;;;;;-142.57;53.84;115900.28;5067776;28;20037;-89
2023/08/09 05:00:16;;;;;;;4.45;1.35;;;;;;;-142.57;52.38;115900.28;5077724;28;20025;-89
2023/08/09 05:02:41;;;;;;;4.78;2.33;;;;;;;-142.57;52.47;115900.28;5077938;28;20021;-90
2023/08/09 05:08:30;;;;;;;7.63;2.28;;;;;;;-142.57;52.35;115900.28;5078114;28;20029;-89
2023/08/09 05:11:00;;;;;;;5.20;1.83;;;;;;;-142.57;52.06;115900.28;5078083;28;20020;-89
2023/08/09 05:16:54;;;;;;;7.88;1.52;;;;;;;-142.57;51.21;115900.28;5061628;28;20044;-90
2023/08/09 05:19:20;;;;;;;5.68;1.70;;;;;;;-142.57;51.53;115900.28;5057540;28;20186;-90
2023/08/09 05:21:46;;;;;;;8.00;1.90;;;;;;;-142.57;50.95;115900.28;5058020;28;20045;-86
2023/08/09 05:24:14;;;;;;;7.70;1.88;;;;;;;-142.57;51.02;115900.28;5057619;28;20081;-86
2023/08/09 05:26:40;;;;;;;5.63;1.63;;;;;;;-142.57;51.58;115900.28;5055810;28;20029;-85
2023/08/09 05:29:05;;;;;;;10.43;1.70;;;;;;;-142.57;51.31;115900.28;5055877;28;20059;-86
2023/08/09 05:31:32;;;;;;;6.05;1.63;;;;;;;-142.57;52.19;115900.28;5056730;28;20044;-89
2023/08/09 05:34:00;;;;;;;4.78;1.27;;;;;;;-142.57;52.44;115900.28;5063925;28;20021;-87
2023/08/09 05:36:27;;;;;;;5.63;1.70;;;;;;;-142.57;51.76;115900.28;5060670;28;20029;-88
2023/08/09 05:38:54;;;;;;;7.95;2.00;;;;;;;-142.57;51.11;115900.28;5057471;28;20158;-89
2023/08/09 05:41:19;;;;;;;4.28;1.75;;;;;;;-142.57;50.25;115900.28;5056920;28;20064;-88
2023/08/09 05:43:45;;;;;;;7.43;1.58;;;;;;;-142.57;50.73;115900.28;5054080;28;20462;-86
2023/08/09 05:46:10;;;;;;;6.25;1.48;;;;;;;-142.57;50.65;115900.28;5059594;28;20478;-89
2023/08/09 05:48:37;;;;;;;15.32;2.00;;;;;;;-142.57;50.88;115900.28;5060139;28;20044;-89
2023/08/09 05:51:04;;;;;;;4.35;1.77;;;;;;;-142.57;50.12;115900.28;5056071;28;20094;-87
2023/08/09 05:53:30;;;;;;;5.15;1.90;;;;;;;-142.57;49.80;115900.28;5056836;28;20025;-88
2023/08/09 05:55:58;;;;;;;6.22;1.92;;;;;;;-142.57;50.39;115900.28;5043986;28;20139;-85
2023/08/09 05:58:24;;;;;;;9.82;2.10;;;;;;;-142.57;50.53;115900.28;5058808;28;20494;-85
2023/08/09 06:00:49;;;;;;;5.65;2.08;;;;;;;-142.57;50.07;115900.28;5059310;28;20048;-85
2023/08/09 06:03:18;;;;;;;4.63;2.08;;;;;;;-142.57;47.75;115900.28;5059688;28;20025;-85
2023/08/09 06:05:44;;;;;;;5.35;2.08;;;;;;;-142.57;46.04;115900.28;5056270;28;20048;-85
2023/08/09 06:08:10;;;;;;;8.27;2.40;;;;;;;-142.57;44.35;115900.28;5058510;28;20482;-85
2023/08/09 06:10:35;;;;;;;6.78;1.85;;;;;;;-142.57;43.01;115900.28;5062294;28;20092;-85
2023/08/09 06:13:01;;;;;;;9.20;1.90;;;;;;;-142.57;43.16;115900.28;5066721;28;20052;-85
2023/08/09 06:15:27;;;;;;;15.80;2.30;;;;;;;-142.57;42.84;115900.28;5068398;28;20470;-87
2023/08/09 06:17:52;;;;;;;8.50;1.55;;;;;;;-142.57;39.62;115900.28;5064518;28;20048;-86
2023/08/09 06:20:21;;;;;;;7.13;1.80;;;;;;;-142.57;40.54;115900.28;5060138;28;20076;-87
2023/08/09 06:22:49;;;;;;;5.20;1.90;;;;;;;-142.57;38.64;115900.28;5075397;23;20067;-87
2023/08/09 06:25:16;;;;;;;9.63;1.80;;;;;;;-142.57;38.46;115900.28;5080987;28;20040;-83
2023/08/09 06:27:42;;;;;;;5.20;1.70;;;;;;;-142.57;38.11;115900.28;5055701;28;20528;-87
2023/08/09 06:30:08;;;;;;;5.72;1.63;;;;;;;-142.57;36.76;115900.28;5041124;28;20129;-86
2023/08/09 06:32:42;;;;;;;5.90;1.48;;;;;;;-142.57;36.29;115900.28;5041488;28;20040;-88
2023/08/09 06:35:11;;;;;;;4.38;1.65;;;;;;;-142.57;36.36;115900.28;5060492;28;20465;-87
2023/08/09 06:37:38;;;;;;;9.07;1.30;;;;;;;-142.57;35.32;115900.28;5061779;28;20049;-83
2023/08/09 06:40:07;;;;;;;10.80;1.73;;;;;;;-142.57;34.92;115900.28;5061599;28;20053;-87
2023/08/09 06:42:44;;;;;;;5.07;1.58;;;;;;;-142.57;35.35;115900.28;5043673;28;20029;-90
2023/08/09 06:45:14;;;;;;;;;;;;;;;-142.57;34.72;115900.28;5059776;28;20052;-87
2023/08/09 06:47:40;;;;;;;4.30;1.58;;;;;;;-142.57;35.82;115900.28;5040285;28;19916;-89
2023/08/09 06:50:06;;;;;;;9.05;1.90;;;;;;;-142.57;36.80;115900.28;5063933;28;20025;-88
2023/08/09 06:52:36;;;;;;;7.50;2.10;;;;;;;-142.57;36.52;115900.28;5063435;28;20044;-89
2023/08/09 06:55:06;;;;;;;8.82;1.80;;;;;;;-142.57;35.38;115900.28;5042338;28;20040;-87
2023/08/09 06:57:31;;;;;;;6.97;1.92;;;;;;;-142.57;35.05;115900.28;5041475;28;20037;-88
2023/08/09 06:59:57;;;;;;;7.05;1.95;;;;;;;-142.57;36.67;115900.28;5056851;28;20048;-87
2023/08/09 07:02:23;;;;;;;9.90;2.20;;;;;;;-142.57;36.98;115900.28;5057106;28;20057;-85
2023/08/09 07:04:54;;;;;;;8.48;1.70;;;;;;;-142.57;37.04;115900.28;5023254;28;20076;-85
2023/08/09 07:07:22;;;;;;;;;;;;;;;-142.57;36.05;115900.28;5058200;28;20092;-86
2023/08/09 07:09:49;;;;;;;5.20;1.92;;;;;;;-142.57;35.58;115900.28;5040924;28;19913;-89
2023/08/09 07:12:17;;;;;;;6.90;1.80;;;;;;;-142.57;34.24;115900.28;5061422;28;20037;-88
2023/08/09 07:14:46;;;;;;;7.38;1.48;;;;;;;-142.57;34.49;115900.28;5042661;28;20124;-89
2023/08/09 07:17:12;;;;;;;2.80;1.25;;;;;;;-142.57;34.25;115900.28;5060636;28;20175;-86
2023/08/09 07:19:37;;;;;;;15.45;2.17;;;;;;;-142.57;34.77;115900.28;5060177;28;20052;-87
2023/08/09 07:22:03;;;;;;;8.20;2.05;;;;;;;-142.57;34.35;115900.28;5056394;28;20033;-85
2023/08/09 07:24:29;;;;;;;5.68;1.65;;;;;;;-142.57;34.59;115900.28;5039796;28;20040;-84
2023/08/09 07:26:55;;;;;;;10.38;2.05;;;;;;;-142.57;33.31;115900.28;5057907;28;20036;-86
2023/08/09 07:29:24;;;;;;;10.02;2.20;;;;;;;-142.57;32.08;115900.28;5057436;28;20033;-89
2023/08/09 07:31:49;;;;;;;4.93;1.70;;;;;;;-142.57;32.27;115900.28;5023720;28;20021;-85
2023/08/09 07:34:16;;;;;;;5.22;1.88;;;;;;;-142.57;32.25;115900.28;5056049;28;20041;-88
2023/08/09 07:36:42;;;;;;;15.38;2.28;;;;;;;-142.57;31.54;115900.28;5039581;28;20457;-86
2023/08/09 07:39:09;;;;;;;10.98;2.20;;;;;;;-142.57;32.20;115900.28;5044967;28;20061;-85
2023/08/09 07:41:36;;;;;;;11.30;2.20;;;;;;;-142.57;31.53;115900.28;5052233;28;20043;-86
2023/08/09 07:44:06;;;;;;;8.75;1.75;;;;;;;-142.57;32.15;115900.28;5057294;28;20029;-85
2023/08/09 07:46:33;;;;;;;9.93;2.55;;;;;;;-142.57;31.39;115900.28;5058075;28;20029;-87
2023/08/09 07:48:58;;;;;;;9.32;2.30;;;;;;;-142.57;30.99;115900.28;5063588;28;20037;-86
2023/08/09 07:51:24;;;;;;;4.15;2.05;;;;;;;-142.57;29.61;115900.28;5059020;28;20037;-88
2023/08/09 07:53:49;;;;;;;9.80;2.20;;;;;;;-142.57;28.59;115900.28;5058506;28;20029;-87
2023/08/09 07:56:15;;;;;;;9.05;1.65;;;;;;;-142.57;28.73;115900.28;5039998;28;20045;-86
2023/08/09 07:58:46;;;;;;;6.70;2.22;;;;;;;-142.57;28.54;115900.28;5024713;28;20048;-87
2023/08/09 08:01:12;;;;;;;8.45;2.28;;;;;;;-142.57;28.43;115900.28;5059250;28;20033;-88
2023/08/09 08:03:38;;;;;;;15.05;2.20;;;;;;;-142.57;28.49;115900.28;5058978;28;20043;-87
2023/08/09 08:06:04;;;;;;;8.20;2.38;;;;;;;-142.57;28.66;115900.28;5062165;28;20021;-91
2023/08/09 08:08:30;;;;;;;7.13;2.10;;;;;;;-142.57;28.32;115900.28;5058973;28;20022;-87
2023/08/09 08:10:56;;;;;;;7.35;2.90;;;;;;;-142.57;28.36;115900.28;5043351;28;20516;-89
2023/08/09 08:13:25;;;;;;;8.90;2.40;;;;;;;-142.57;27.55;115900.28;5058902;28;20025;-87
2023/08/09 08:15:52;;;;;;;10.63;2.50;;;;;;;-142.57;28.40;115900.28;5045103;28;20037;-87
2023/08/09 08:18:26;;;;;;;7.03;2.42;;;;;;;-142.57;28.54;115900.28;5060193;28;20096;-90
2023/08/09 08:20:52;;;;;;;6.25;2.70;;;;;;;-142.57;28.13;115900.28;5057137;28;20041;-89
2023/08/09 08:23:18;;;;;;;7.47;2.28;;;;;;;-142.57;27.92;115900.28;5056521;28;20039;-87
2023/08/09 08:25:44;;;;;;;5.65;2.25;;;;;;;-142.57;28.27;115900.28;5056743;28;20082;-84
2023/08/09 08:28:10;;;;;;;8.25;2.10;;;;;;;-142.57;28.84;115900.28;5059037;28;20501;-89
2023/08/09 08:30:36;;;;;;;12.90;2.60;;;;;;;-142.57;29.33;115900.28;5058169;28;20033;-88
2023/08/09 08:33:02;;;;;;;10.98;3.08;;;;;;;-142.57;29.38;115900.28;5022829;28;20057;-86
2023/08/09 08:35:36;;;;;;;6.95;2.45;;;;;;;-142.57;29.23;115900.28;5056667;28;20033;-89
2023/08/09 08:38:02;;;;;;;11.32;2.75;;;;;;;-142.57;29.40;115900.28;5055483;28;20029;-88
2023/08/09 08:40:28;;;;;;;8.65;3.17;;;;;;;-142.57;28.83;115900.28;5055273;28;20112;-87
2023/08/09 08:42:53;;;;;;;8.88;3.97;;;;;;;-142.57;28.37;115900.28;5021093;28;20071;-85
2023/08/09 08:45:19;;;;;;;13.00;4.13;;;;;;;-142.57;28.18;115900.28;5048500;28;20430;-88
2023/08/09 08:47:46;;;;;;;7.00;3.15;;;;;;;-142.57;28.45;115900.28;5055353;28;20044;-88
2023/08/09 08:50:14;;;;;;;9.13;4.07;;;;;;;-142.57;28.14;115900.28;5072291;28;20024;-87
2023/08/09 08:52:42;;;;;;;8.13;3.88;;;;;;;-142.57;28.68;115900.28;5077269;28;20052;-86
2023/08/09 08:55:12;;;;;;;11.60;3.60;;;;;;;-142.57;28.23;115900.28;5078145;28;20045;-86
2023/08/09 08:57:39;;;;;;;14.15;4.88;;;;;;;-142.57;28.32;115900.28;5061210;28;20025;-87
2023/08/09 09:00:20;;;;;;;12.75;3.95;;;;;;;-142.57;27.84;115900.28;5077354;28;20049;-87
2023/08/09 09:02:47;;;;;;;11.40;4.47;;;;;;;-142.57;27.57;115900.28;5074221;28;20051;-85
2023/08/09 09:05:19;;;;;;;14.52;5.00;;;;;;;-142.57;27.60;115900.28;5065567;28;20120;-88
2023/08/09 09:07:50;;;;;;;13.05;5.35;;;;;;;-142.57;27.43;115900.28;5038197;28;20524;-85
2023/08/09 09:10:16;;;;;;;11.27;4.40;;;;;;;-142.57;27.20;115900.28;5037505;28;20041;-84
2023/08/09 09:12:43;;;;;;;18.02;4.78;;;;;;;-142.57;27.54;115900.28;5054698;28;20037;-86
2023/08/09 09:15:09;;;;;;;18.17;5.18;;;;;;;-142.57;28.31;115900.28;5036819;28;20033;-89
2023/08/09 09:17:43;;;;;;;15.50;5.43;;;;;;;-142.57;28.19;115900.28;5036693;28;20073;-88
2023/08/09 09:20:21;;;;;;;14.25;5.75;;;;;;;-142.57;27.68;115900.28;5036689;28;20029;-84
2023/08/09 09:22:48;;;;;;;17.27;5.85;;;;;;;-142.57;27.91;115900.28;5054369;28;20040;-85
2023/08/09 09:25:14;;;;;;;21.17;6.18;;;;;;;-142.57;28.23;115900.28;5036430;28;20044;-87
2023/08/09 09:27:40;;;;;;;16.60;6.43;;;;;;;-142.57;28.30;115900.28;5053814;28;20465;-88
2023/08/09 09:30:14;;;;;;;20.83;6.13;;;;;;;-142.57;27.92;115900.28;5054519;28;20048;-85
2023/08/09 09:32:56;;;;;;;15.48;5.85;;;;;;;-142.57;27.52;115900.28;5054346;28;20041;-86
2023/08/09 09:35:22;;;;;;;;;;;;;;;-142.57;27.07;115900.28;5054937;28;20502;-85
2023/08/09 09:37:50;;;;;;;19.35;5.63;;;;;;;-142.57;27.52;115900.28;5054272;28;19913;-85
2023/08/09 09:40:22;;;;;;;16.83;6.38;;;;;;;-142.57;27.56;115900.28;5055207;28;20469;-89
2023/08/09 09:42:51;;;;;;;16.23;5.68;;;;;;;-142.57;27.11;115900.28;5040949;28;20091;-87
2023/08/09 09:45:24;;;;;;;14.85;5.75;;;;;;;-142.57;26.53;115900.28;5040860;28;20112;-87
2023/08/09 09:47:54;;;;;;;16.45;5.97;;;;;;;-142.57;26.21;115900.28;5057808;28;20121;-85
2023/08/09 09:50:24;;;;;;;14.27;5.40;;;;;;;-142.57;26.31;115900.28;5058590;28;20044;-87
2023/08/09 09:52:50;;;;;;;18.05;5.18;;;;;;;-142.57;25.90;115900.28;5024306;28;20478;-86
2023/08/09 09:55:25;;;;;;;12.02;4.95;;;;;;;-142.57;25.48;115900.28;5039937;28;20033;-87
2023/08/09 09:57:52;;;;;;;14.15;5.85;;;;;;;-142.57;25.25;115900.28;5041029;28;20474;-86
2023/08/09 10:00:22;;;;;;;18.13;6.25;;;;;;;-142.57;25.96;115900.28;5058449;28;20370;-86
2023/08/09 10:02:50;;;;;;;13.18;5.13;;;;;;;-142.57;25.99;115900.28;5058663;28;20104;-85
2023/08/09 10:05:26;;;;;;;11.63;5.22;;;;;;;-142.57;25.90;115900.28;5058031;28;20029;-89
2023/08/09 10:07:53;;;;;;;19.05;5.85;;;;;;;-142.57;25.79;115900.28;5060097;28;20036;-89
2023/08/09 10:10:19;;;;;;;16.40;4.80;;;;;;;-142.57;25.52;115900.28;5025880;28;20032;-86
2023/08/09 10:12:51;;;;;;;12.77;4.88;;;;;;;-142.57;25.33;115900.28;5041768;28;20080;-89
2023/08/09 10:15:27;;;;;;;13.02;5.28;;;;;;;-142.57;25.94;115900.28;5044793;28;20104;-86
2023/08/09 10:18:04;;;;;;;10.43;4.07;;;;;;;-142.57;24.95;115900.28;5040821;28;20037;-86
2023/08/09 10:20:31;;;;;;;16.38;4.57;;;;;;;-142.57;25.06;115900.28;5057153;28;20128;-87
2023/08/09 10:22:58;;;;;;;10.38;4.05;;;;;;;-142.57;25.05;115900.28;5061366;28;20115;-87
2023/08/09 10:25:44;;;;;;;11.75;4.30;;;;;;;-142.57;25.11;115900.28;5025055;28;20059;-89
2023/08/09 10:28:13;;;;;;;19.73;5.25;;;;;;;-142.57;26.12;115900.28;5044735;28;20111;-88
2023/08/09 10:30:43;;;;;;;19.55;6.30;;;;;;;-142.57;25.76;115900.28;5043433;28;20065;-91
2023/08/09 10:33:09;;;;;;;14.75;6.10;;;;;;;-142.57;25.99;115900.28;5044403;28;20101;-88
2023/08/09 10:35:54;;;;;;;25.05;5.80;;;;;;;-142.57;25.99;115900.28;5061510;28;20065;-84
2023/08/09 10:38:38;;;;;;;13.38;5.10;;;;;;;-142.57;26.37;115900.28;5040067;28;20033;-86
2023/08/09 10:41:10;;;;;;;14.15;4.97;;;;;;;-142.57;26.00;115900.28;5026030;28;20043;-90
2023/08/09 10:43:36;;;;;;;;;;;;;;;-142.57;26.53;115900.28;5025083;28;20052;-86
2023/08/09 10:46:24;;;;;;;9.00;3.78;;;;;;;-142.57;25.75;115900.28;5057203;28;19912;-85
2023/08/09 10:48:52;;;;;;;10.35;3.92;;;;;;;-142.57;25.68;115900.28;5024442;28;20060;-86
2023/08/09 10:51:22;;;;;;;13.63;4.40;;;;;;;-142.57;25.64;115900.28;5023600;28;20041;-86
2023/08/09 10:53:55;;;;;;;13.27;4.60;;;;;;;-142.57;26.12;115900.28;5057773;28;20037;-86
2023/08/09 10:56:45;;;;;;;13.50;4.38;;;;;;;-142.57;26.65;115900.28;5057542;28;20025;-87
2023/08/09 10:59:15;;;;;;;11.23;4.10;;;;;;;-142.57;26.19;115900.28;5058021;28;20035;-85
2023/08/09 11:01:42;;;;;;;13.15;3.97;;;;;;;-142.57;26.39;115900.28;5057812;28;20128;-87
2023/08/09 11:04:12;;;;;;;14.95;4.05;;;;;;;-142.57;26.29;115900.28;5045609;28;20036;-87
2023/08/09 11:06:43;;;;;;;12.60;3.90;;;;;;;-142.57;26.10;115900.28;5090256;28;20048;-88
2023/08/09 11:09:14;;;;;;;9.52;3.35;;;;;;;-142.57;26.20;115900.28;5089400;28;20016;-87
2023/08/09 11:11:41;;;;;;;14.23;3.57;;;;;;;-142.57;26.06;115900.28;5070197;28;20045;-88
2023/08/09 11:14:08;;;;;;;10.32;3.85;;;;;;;-142.57;26.61;115900.28;5069234;28;20279;-85
2023/08/09 11:16:34;;;;;;;16.05;5.88;;;;;;;-142.57;26.60;115900.28;5058657;28;20040;-84
2023/08/09 11:19:07;;;;;;;10.65;3.45;;;;;;;-142.57;26.73;115900.28;5057307;28;20519;-84
2023/08/09 11:21:44;;;;;;;12.57;4.75;;;;;;;-142.57;26.10;115900.28;5057463;28;20044;-86
2023/08/09 11:24:11;;;;;;;17.83;3.25;;;;;;;-142.57;26.21;115900.28;5057577;28;20033;-85